Time;durP1;ratioP1;P1;durP2;ratioP2;P2;SDS_P1;SDS_P2;PMS_P1;PMS_P2;Temp;Humidity;BMP_temperature;BMP_pressure;BME280_temperature;BME280_humidity;BME280_pressure;Samples;Min_cycle;Max_cycle;Signal;HPM_P1;HPM_P2
2023/08/03 00:01:24;;;;;;;10.07;3.10;;;15.60;99.90;;;;;;5113843;27;20115;-43
2023/08/03 00:03:50;;;;;;;9.65;3.17;;;15.70;99.90;;;;;;5113819;27;20047;-41
2023/08/03 00:06:15;;;;;;;11.68;3.10;;;15.70;99.90;;;;;;5114759;27;20508;-43
2023/08/03 00:08:41;;;;;;;19.27;4.68;;;15.60;99.90;;;;;;5108217;27;20043;-41
2023/08/03 00:11:07;;;;;;;17.67;4.78;;;15.60;99.90;;;;;;5102818;27;20614;-43
2023/08/03 00:13:32;;;;;;;9.98;3.55;;;15.80;99.90;;;;;;5096413;27;20484;-41
2023/08/03 00:15:58;;;;;;;24.95;5.07;;;15.80;99.90;;;;;;5114724;27;20043;-41
2023/08/03 00:18:24;;;;;;;10.57;3.30;;;15.80;99.90;;;;;;5095688;28;20038;-45
2023/08/03 00:20:50;;;;;;;8.70;4.13;;;15.90;99.90;;;;;;5114234;27;20043;-42
2023/08/03 00:23:16;;;;;;;12.68;3.00;;;15.80;99.90;;;;;;5132980;27;20086;-45
2023/08/03 00:25:42;;;;;;;9.65;3.85;;;15.70;99.90;;;;;;5136771;27;20039;-42
2023/08/03 00:28:07;;;;;;;8.48;3.22;;;15.70;99.90;;;;;;5116552;27;20043;-42
2023/08/03 00:30:33;;;;;;;7.95;2.95;;;15.80;99.90;;;;;;5116228;27;20054;-43
2023/08/03 00:32:59;;;;;;;6.40;3.10;;;15.80;99.90;;;;;;5135132;27;20046;-41
2023/08/03 00:35:24;;;;;;;9.43;3.00;;;15.90;99.90;;;;;;5136220;27;20043;-43
2023/08/03 00:37:51;;;;;;;7.45;3.42;;;15.80;99.90;;;;;;5135562;27;20042;-43
2023/08/03 00:40:17;;;;;;;8.45;2.53;;;15.80;99.90;;;;;;5135451;27;20069;-44
2023/08/03 00:42:43;;;;;;;7.68;3.50;;;15.80;99.90;;;;;;5099024;28;20043;-42
2023/08/03 00:45:11;;;;;;;10.18;3.40;;;15.80;99.90;;;;;;5114392;27;20110;-42
2023/08/03 00:47:38;;;;;;;6.63;3.15;;;15.80;99.90;;;;;;5113653;27;20138;-43
2023/08/03 00:50:04;;;;;;;9.55;3.50;;;15.80;99.90;;;;;;5114357;27;20065;-43
2023/08/03 00:52:32;;;;;;;4.93;2.25;;;15.80;99.90;;;;;;5113713;27;20292;-42
2023/08/03 00:54:57;;;;;;;6.18;2.70;;;15.70;99.90;;;;;;5114874;27;20142;-42
2023/08/03 00:57:23;;;;;;;8.77;2.88;;;15.80;99.90;;;;;;5114874;28;20043;-43
2023/08/03 00:59:49;;;;;;;8.73;3.70;;;15.80;99.90;;;;;;5113688;28;20070;-45
2023/08/03 01:02:15;;;;;;;4.50;3.30;;;15.90;99.90;;;;;;5114329;27;20055;-44
2023/08/03 01:04:40;;;;;;;5.20;2.22;;;15.80;99.90;;;;;;5115421;28;20535;-43
2023/08/03 01:07:06;;;;;;;5.00;2.53;;;15.90;99.90;;;;;;5095721;27;20059;-43
2023/08/03 01:09:32;;;;;;;5.28;3.60;;;15.90;99.90;;;;;;5102928;28;20044;-44
2023/08/03 01:11:57;;;;;;;10.65;3.90;;;15.90;99.90;;;;;;5111140;27;20065;-43
2023/08/03 01:14:23;;;;;;;3.63;2.67;;;15.80;99.90;;;;;;5096537;28;20047;-43
2023/08/03 01:16:50;;;;;;;5.18;2.88;;;15.80;99.90;;;;;;5114613;27;20039;-43
2023/08/03 01:19:16;;;;;;;5.93;3.80;;;15.90;99.90;;;;;;5115112;27;20040;-43
2023/08/03 01:21:43;;;;;;;6.50;3.05;;;15.70;99.90;;;;;;5113441;27;20054;-42
2023/08/03 01:24:09;;;;;;;9.90;4.00;;;15.90;99.90;;;;;;5115250;27;20043;-42
2023/08/03 01:26:35;;;;;;;8.63;3.92;;;15.90;99.90;;;;;;5114874;27;20047;-42
2023/08/03 01:29:00;;;;;;;7.18;3.60;;;15.80;99.90;;;;;;5114041;27;20046;-43
2023/08/03 01:31:26;;;;;;;8.80;4.55;;;15.80;99.90;;;;;;5097422;27;20055;-43
2023/08/03 01:33:53;;;;;;;3.97;2.58;;;15.80;99.90;;;;;;5118339;27;20051;-43
2023/08/03 01:36:18;;;;;;;6.35;3.65;;;15.90;99.90;;;;;;5118239;27;20546;-42
2023/08/03 01:38:44;;;;;;;7.93;4.28;;;15.80;99.90;;;;;;5118650;27;20508;-44
2023/08/03 01:41:09;;;;;;;4.53;2.80;;;15.90;99.90;;;;;;5116911;27;20047;-43
2023/08/03 01:43:35;;;;;;;7.10;3.95;;;16.00;99.90;;;;;;5118001;27;20051;-42
2023/08/03 01:46:01;;;;;;;10.13;4.90;;;15.90;99.90;;;;;;5117935;27;20050;-43
2023/08/03 01:48:26;;;;;;;4.75;3.78;;;15.90;99.90;;;;;;5118343;27;20088;-43
2023/08/03 01:50:52;;;;;;;6.97;4.28;;;15.90;99.90;;;;;;5116975;27;20405;-42
2023/08/03 01:53:18;;;;;;;7.88;5.18;;;15.90;99.90;;;;;;5099188;27;20886;-43
2023/08/03 01:55:46;;;;;;;10.55;4.82;;;16.00;99.90;;;;;;5116662;27;20054;-43
2023/08/03 01:58:13;;;;;;;5.90;4.10;;;15.90;99.90;;;;;;5098264;27;20047;-43
2023/08/03 02:00:39;;;;;;;7.63;4.28;;;16.00;99.90;;;;;;5113612;27;20051;-42
2023/08/03 02:03:05;;;;;;;6.82;4.78;;;15.90;99.90;;;;;;5121852;27;20053;-43
2023/08/03 02:05:30;;;;;;;6.25;5.03;;;16.00;99.90;;;;;;5122306;27;20058;-43
2023/08/03 02:07:56;;;;;;;10.43;5.78;;;16.00;99.90;;;;;;5115770;27;20497;-42
2023/08/03 02:10:23;;;;;;;7.38;5.45;;;15.90;99.90;;;;;;5099986;27;20054;-44
2023/08/03 02:12:49;;;;;;;10.30;6.18;;;15.90;99.90;;;;;;5116843;27;20094;-42
2023/08/03 02:15:15;;;;;;;9.50;5.63;;;15.90;99.90;;;;;;5116925;27;20826;-44
2023/08/03 02:17:42;;;;;;;10.30;5.63;;;16.10;99.90;;;;;;5117520;27;20043;-42
2023/08/03 02:20:09;;;;;;;12.30;5.63;;;16.10;99.90;;;;;;5116946;27;20061;-42
2023/08/03 02:22:35;;;;;;;9.68;5.95;;;16.00;99.90;;;;;;5118083;27;20057;-46
2023/08/03 02:25:01;;;;;;;10.07;6.80;;;16.10;99.90;;;;;;5118079;27;20047;-43
2023/08/03 02:27:27;;;;;;;10.30;7.70;;;15.90;99.90;;;;;;5118138;27;20051;-43
2023/08/03 02:29:52;;;;;;;9.77;6.13;;;15.90;99.90;;;;;;5117309;27;20100;-44
2023/08/03 02:32:19;;;;;;;8.43;5.80;;;16.00;99.90;;;;;;5116785;27;20085;-42
2023/08/03 02:34:45;;;;;;;9.02;6.82;;;16.00;99.90;;;;;;5117605;27;20047;-43
2023/08/03 02:37:11;;;;;;;7.85;6.57;;;15.90;99.90;;;;;;5117303;27;20043;-44
2023/08/03 02:39:36;;;;;;;10.00;8.00;;;16.10;99.90;;;;;;5116062;27;20485;-45
2023/08/03 02:42:02;;;;;;;12.50;7.50;;;16.10;99.90;;;;;;5097158;27;20058;-41
2023/08/03 02:44:28;;;;;;;10.07;8.00;;;16.10;99.90;;;;;;5116869;27;20059;-42
2023/08/03 02:46:53;;;;;;;14.45;9.38;;;16.10;99.90;;;;;;5116339;27;20133;-41
2023/08/03 02:49:19;;;;;;;14.23;10.77;;;16.00;99.90;;;;;;5096552;27;20191;-42
2023/08/03 02:51:45;;;;;;;13.32;10.38;;;16.00;99.90;;;;;;5115899;27;20055;-43
2023/08/03 02:54:10;;;;;;;16.30;9.95;;;16.10;99.90;;;;;;5115991;27;20085;-43
2023/08/03 02:56:36;;;;;;;15.48;10.30;;;15.90;99.90;;;;;;5117640;27;20051;-43
2023/08/03 02:59:02;;;;;;;12.13;9.68;;;15.90;99.90;;;;;;5116787;27;20046;-43
2023/08/03 03:01:27;;;;;;;16.90;9.75;;;15.90;99.90;;;;;;5115349;27;20540;-43
2023/08/03 03:03:53;;;;;;;17.55;10.55;;;15.90;99.90;;;;;;5116201;27;20043;-43
2023/08/03 03:06:19;;;;;;;11.60;8.77;;;15.70;99.90;;;;;;5115529;27;20054;-43
2023/08/03 03:08:44;;;;;;;17.20;9.75;;;15.80;99.90;;;;;;5091857;28;20486;-41
2023/08/03 03:11:10;;;;;;;15.07;7.72;;;15.70;99.90;;;;;;5105929;27;20092;-42
2023/08/03 03:13:35;;;;;;;16.23;7.75;;;15.70;99.90;;;;;;5116722;27;20043;-44
2023/08/03 03:16:01;;;;;;;13.15;8.20;;;15.70;99.90;;;;;;5116844;27;20054;-43
2023/08/03 03:18:27;;;;;;;16.80;7.75;;;15.60;99.90;;;;;;5116429;27;20401;-43
2023/08/03 03:20:52;;;;;;;11.35;7.70;;;15.50;99.90;;;;;;5115697;27;20241;-42
2023/08/03 03:23:18;;;;;;;17.92;8.27;;;15.50;99.90;;;;;;5116227;27;20043;-42
2023/08/03 03:25:43;;;;;;;18.40;8.95;;;15.70;99.90;;;;;;5116271;27;20487;-45
2023/08/03 03:28:09;;;;;;;16.70;9.15;;;15.70;99.90;;;;;;5115660;27;20047;-43
2023/08/03 03:30:35;;;;;;;22.52;9.27;;;15.70;99.90;;;;;;5126748;27;20058;-42
2023/08/03 03:33:00;;;;;;;23.60;8.80;;;15.60;99.90;;;;;;5136923;27;20050;-45
2023/08/03 03:35:26;;;;;;;20.15;8.88;;;15.60;99.90;;;;;;5118457;27;20115;-43
2023/08/03 03:37:52;;;;;;;22.17;7.47;;;15.60;99.90;;;;;;5136716;27;20131;-41
2023/08/03 03:40:17;;;;;;;19.65;6.43;;;15.60;99.90;;;;;;5116280;27;20232;-46
2023/08/03 03:42:43;;;;;;;16.35;6.00;;;15.70;99.90;;;;;;5135775;27;20050;-41
2023/08/03 03:45:09;;;;;;;19.95;8.02;;;15.60;99.90;;;;;;5136846;27;20064;-45
2023/08/03 03:47:34;;;;;;;25.77;7.88;;;15.80;99.90;;;;;;5136497;27;20046;-44
2023/08/03 03:50:00;;;;;;;24.08;7.70;;;15.60;99.90;;;;;;5134866;27;20048;-42
2023/08/03 03:52:26;;;;;;;19.33;7.18;;;15.70;99.90;;;;;;5135362;27;20050;-43
2023/08/03 03:54:51;;;;;;;19.85;6.35;;;15.60;99.90;;;;;;5135568;27;20042;-41
2023/08/03 03:57:17;;;;;;;14.88;5.63;;;15.90;99.90;;;;;;5135635;27;20057;-41
2023/08/03 03:59:43;;;;;;;18.92;5.90;;;15.70;99.90;;;;;;5135064;27;20437;-43
2023/08/03 04:02:08;;;;;;;23.05;5.32;;;15.70;99.90;;;;;;5122458;27;20054;-43
2023/08/03 04:04:34;;;;;;;21.05;5.85;;;15.60;99.90;;;;;;5134289;27;20039;-43
2023/08/03 04:07:00;;;;;;;21.77;5.70;;;15.80;99.90;;;;;;5134285;27;20043;-42
2023/08/03 04:09:25;;;;;;;17.80;6.03;;;15.90;99.90;;;;;;5106894;27;20051;-44
2023/08/03 04:11:51;;;;;;;20.15;5.50;;;15.60;99.90;;;;;;5128392;27;20137;-41
2023/08/03 04:14:17;;;;;;;19.30;5.47;;;15.80;99.90;;;;;;5125317;27;20043;-41
2023/08/03 04:16:42;;;;;;;21.95;6.15;;;16.00;99.90;;;;;;5114666;27;20050;-41
2023/08/03 04:19:08;;;;;;;20.88;5.32;;;16.00;99.90;;;;;;5097308;28;20123;-43
2023/08/03 04:21:33;;;;;;;19.08;5.93;;;16.00;99.90;;;;;;5117485;27;20400;-44
2023/08/03 04:23:59;;;;;;;22.23;5.85;;;15.90;99.90;;;;;;5136202;27;20884;-42
2023/08/03 04:26:25;;;;;;;21.30;5.35;;;16.00;99.90;;;;;;5136675;27;20051;-42
2023/08/03 04:28:50;;;;;;;21.10;5.38;;;15.70;99.90;;;;;;5136746;27;20043;-42
2023/08/03 04:31:16;;;;;;;11.90;5.30;;;15.90;99.90;;;;;;5119674;27;20039;-42
2023/08/03 04:33:41;;;;;;;13.45;5.28;;;15.80;99.90;;;;;;5135965;27;20127;-45
2023/08/03 04:36:07;;;;;;;13.02;4.82;;;15.60;99.90;;;;;;5135445;27;20050;-42
2023/08/03 04:38:33;;;;;;;17.60;5.97;;;15.80;99.90;;;;;;5135884;27;20603;-42
2023/08/03 04:41:01;;;;;;;15.50;6.07;;;15.60;99.90;;;;;;5131429;27;20460;-44
2023/08/03 04:43:28;;;;;;;18.52;5.45;;;15.80;99.90;;;;;;5115489;27;20067;-43
2023/08/03 04:45:54;;;;;;;18.58;6.00;;;15.80;99.90;;;;;;5114938;27;20516;-43
2023/08/03 04:48:20;;;;;;;20.42;5.50;;;15.60;99.90;;;;;;5114661;27;20043;-43
2023/08/03 04:50:45;;;;;;;14.60;5.20;;;15.60;99.90;;;;;;5112621;27;20062;-42
2023/08/03 04:53:11;;;;;;;11.45;4.90;;;15.60;99.90;;;;;;5113982;27;20046;-45
2023/08/03 04:55:37;;;;;;;13.38;5.88;;;15.80;99.90;;;;;;5115385;27;20051;-44
2023/08/03 04:58:02;;;;;;;16.13;6.68;;;15.90;99.90;;;;;;5096463;28;20095;-43
2023/08/03 05:00:28;;;;;;;12.15;6.22;;;15.70;99.90;;;;;;5113812;27;20055;-47
2023/08/03 05:02:54;;;;;;;16.50;6.03;;;15.80;99.90;;;;;;5114791;27;21003;-43
2023/08/03 05:05:19;;;;;;;14.32;6.10;;;16.00;99.90;;;;;;5116102;27;20329;-42
2023/08/03 05:07:45;;;;;;;16.10;5.70;;;16.10;99.90;;;;;;5079326;28;20170;-42
2023/08/03 05:10:11;;;;;;;15.07;5.85;;;16.60;99.90;;;;;;5107427;27;20050;-43
2023/08/03 05:12:39;;;;;;;12.50;5.72;;;17.30;99.90;;;;;;5130032;27;20511;-44
2023/08/03 05:15:05;;;;;;;9.35;3.65;;;18.50;99.90;;;;;;5118766;27;20047;-44
2023/08/03 05:17:31;;;;;;;14.60;3.03;;;19.60;99.90;;;;;;5118713;27;20054;-44
2023/08/03 05:19:56;;;;;;;8.43;2.60;;;20.10;99.90;;;;;;5118714;27;20046;-44
2023/08/03 05:22:22;;;;;;;9.02;2.67;;;21.00;99.90;;;;;;5118371;27;20723;-42
2023/08/03 05:24:48;;;;;;;6.85;2.78;;;21.90;99.90;;;;;;5118654;27;20460;-44
2023/08/03 05:27:14;;;;;;;6.90;3.10;;;22.80;99.90;;;;;;5119031;27;20640;-43
2023/08/03 05:29:43;;;;;;;5.65;2.65;;;23.60;99.90;;;;;;5118385;27;20519;-44
2023/08/03 05:32:09;;;;;;;9.50;2.67;;;24.50;99.90;;;;;;5099456;27;20563;-42
2023/08/03 05:34:34;;;;;;;8.88;3.03;;;24.60;99.90;;;;;;5098479;27;20058;-43
2023/08/03 05:37:00;;;;;;;10.75;3.13;;;23.90;99.90;;;;;;5099995;27;20104;-44
2023/08/03 05:39:27;;;;;;;10.02;3.17;;;23.10;99.90;;;;;;5117766;27;20365;-44
2023/08/03 05:41:52;;;;;;;9.13;3.35;;;22.00;99.90;;;;;;5116740;27;20046;-46
2023/08/03 05:44:18;;;;;;;10.13;3.58;;;21.30;99.90;;;;;;5117345;27;20061;-42
2023/08/03 05:46:44;;;;;;;13.00;3.22;;;20.90;99.90;;;;;;5118281;27;20552;-48
2023/08/03 05:49:11;;;;;;;9.63;3.38;;;20.30;99.90;;;;;;5116817;27;20035;-46
2023/08/03 05:51:39;;;;;;;12.88;3.58;;;19.90;99.90;;;;;;5116231;27;20063;-43
2023/08/03 05:54:05;;;;;;;8.95;3.10;;;19.60;99.90;;;;;;5120371;27;20609;-43
2023/08/03 05:56:35;;;;;;;8.27;2.63;;;19.70;99.90;;;;;;5119617;27;20043;-46
2023/08/03 05:59:02;;;;;;;10.38;3.47;;;20.10;99.90;;;;;;5119345;27;20047;-45
2023/08/03 06:01:28;;;;;;;10.02;3.45;;;21.00;99.90;;;;;;5116184;27;20051;-43
2023/08/03 06:03:54;;;;;;;8.57;2.70;;;22.50;99.90;;;;;;5137148;27;20313;-43
2023/08/03 06:06:21;;;;;;;10.38;2.97;;;23.90;99.90;;;;;;5137563;27;20054;-43
2023/08/03 06:08:52;;;;;;;6.55;2.75;;;24.90;99.90;;;;;;5120822;27;20085;-43
2023/08/03 06:11:20;;;;;;;7.88;2.90;;;25.10;99.90;;;;;;5101678;27;20350;-45
2023/08/03 06:13:47;;;;;;;9.82;2.88;;;25.50;99.90;;;;;;5138123;27;20469;-42
2023/08/03 06:16:14;;;;;;;6.30;2.63;;;26.50;99.90;;;;;;5135558;27;20072;-43
2023/08/03 06:19:00;;;;;;;8.07;2.55;;;27.30;99.90;;;;;;5137061;27;20087;-45
2023/08/03 06:21:27;;;;;;;6.78;2.22;;;27.80;99.90;;;;;;5137065;27;20150;-45
2023/08/03 06:23:54;;;;;;;7.20;2.20;;;28.10;99.90;;;;;;5120138;27;20115;-43
2023/08/03 06:26:21;;;;;;;9.05;2.50;;;28.50;99.90;;;;;;5138781;27;20046;-44
2023/08/03 06:28:49;;;;;;;7.43;2.00;;;28.10;99.90;;;;;;5120027;27;20047;-44
2023/08/03 06:31:19;;;;;;;8.95;2.40;;;28.60;99.90;;;;;;5137093;27;20133;-43
2023/08/03 06:33:46;;;;;;;5.70;2.25;;;28.60;99.90;;;;;;5108840;27;20059;-43
2023/08/03 06:36:18;;;;;;;6.10;2.10;;;28.00;99.90;;;;;;5117658;27;20066;-41
2023/08/03 06:38:44;;;;;;;6.25;1.80;;;27.50;99.90;;;;;;5115675;27;20504;-41
2023/08/03 06:41:10;;;;;;;5.50;1.63;;;26.40;99.90;;;;;;5103810;27;20058;-41
2023/08/03 06:43:36;;;;;;;8.30;2.15;;;25.40;99.90;;;;;;5106529;27;20149;-41
2023/08/03 06:46:02;;;;;;;7.95;2.35;;;24.40;99.90;;;;;;5106656;27;20043;-41
2023/08/03 06:48:28;;;;;;;5.15;1.92;;;23.70;99.90;;;;;;5107804;27;20047;-43
2023/08/03 06:50:54;;;;;;;5.20;1.75;;;22.80;99.90;;;;;;5110240;27;20078;-42
2023/08/03 06:53:21;;;;;;;6.03;1.80;;;22.80;99.90;;;;;;5110711;27;20043;-40
2023/08/03 06:55:48;;;;;;;5.57;1.98;;;22.60;99.90;;;;;;5112540;27;20073;-41
2023/08/03 06:58:20;;;;;;;4.95;1.88;;;23.20;99.90;;;;;;5112072;27;20207;-41
2023/08/03 07:00:46;;;;;;;6.20;1.57;;;24.10;99.90;;;;;;5107357;27;20040;-40
2023/08/03 07:03:11;;;;;;;5.57;1.40;;;25.20;99.90;;;;;;5087058;28;20288;-40
2023/08/03 07:05:38;;;;;;;3.60;1.30;;;26.20;99.90;;;;;;5066970;27;20051;-41
2023/08/03 07:08:04;;;;;;;6.20;1.70;;;26.00;99.90;;;;;;5104949;27;20446;-41
2023/08/03 07:10:30;;;;;;;2.17;1.30;;;25.30;99.90;;;;;;5106046;27;20050;-45
2023/08/03 07:12:55;;;;;;;4.30;1.60;;;24.70;99.90;;;;;;5114768;27;20061;-42
2023/08/03 07:15:21;;;;;;;6.30;1.50;;;23.90;99.90;;;;;;5103080;27;20046;-43
2023/08/03 07:17:47;;;;;;;3.25;1.40;;;23.70;99.90;;;;;;5120825;27;20039;-41
2023/08/03 07:20:13;;;;;;;6.93;1.58;;;23.30;99.90;;;;;;5098110;27;20038;-41
2023/08/03 07:22:39;;;;;;;4.88;2.17;;;22.80;99.90;;;;;;5115754;27;20042;-44
2023/08/03 07:25:06;;;;;;;5.57;1.83;;;22.40;99.90;;;;;;5117586;27;20039;-44
2023/08/03 07:27:32;;;;;;;5.95;1.80;;;22.30;99.90;;;;;;5117924;27;20050;-40
2023/08/03 07:29:58;;;;;;;6.03;1.52;;;22.30;99.90;;;;;;5101183;27;20172;-43
2023/08/03 07:32:24;;;;;;;4.15;1.60;;;22.70;99.90;;;;;;5108337;27;20144;-42
2023/08/03 07:34:50;;;;;;;5.45;1.98;;;22.60;99.90;;;;;;5107131;27;20375;-43
2023/08/03 07:37:16;;;;;;;5.60;2.13;;;22.90;99.90;;;;;;5105695;27;20511;-42
2023/08/03 07:39:41;;;;;;;6.22;1.83;;;23.20;99.90;;;;;;5115995;27;20046;-41
2023/08/03 07:42:07;;;;;;;4.70;1.33;;;23.00;99.90;;;;;;5135057;27;20102;-41
2023/08/03 07:44:33;;;;;;;4.47;1.65;;;22.90;99.90;;;;;;5134041;27;20035;-42
2023/08/03 07:47:00;;;;;;;3.78;1.45;;;23.00;99.90;;;;;;5117077;27;20545;-42
2023/08/03 07:49:26;;;;;;;4.20;1.40;;;23.30;99.90;;;;;;5135572;27;20045;-44
2023/08/03 07:51:51;;;;;;;4.90;1.42;;;23.40;99.90;;;;;;5116685;27;20095;-42
2023/08/03 07:54:17;;;;;;;5.32;1.60;;;23.70;99.90;;;;;;5133155;27;20292;-40
2023/08/03 07:56:43;;;;;;;3.85;1.17;;;23.70;99.90;;;;;;5103553;27;20042;-40
2023/08/03 07:59:10;;;;;;;5.47;1.05;;;23.80;99.90;;;;;;5114667;27;20453;-42
2023/08/03 08:01:36;;;;;;;6.15;1.73;;;23.90;99.90;;;;;;5114877;27;20160;-41
2023/08/03 08:04:02;;;;;;;5.47;1.42;;;23.80;99.90;;;;;;5134866;27;20388;-41
2023/08/03 08:06:28;;;;;;;3.65;1.30;;;23.80;99.90;;;;;;5092161;27;20070;-44
2023/08/03 08:08:54;;;;;;;7.55;1.92;;;23.50;99.90;;;;;;5109833;27;20622;-45
2023/08/03 08:11:20;;;;;;;6.22;1.48;;;23.00;99.90;;;;;;5099277;27;20384;-43
2023/08/03 08:13:46;;;;;;;6.75;1.98;;;22.40;99.90;;;;;;5127199;27;20512;-42
2023/08/03 08:16:14;;;;;;;4.90;1.55;;;22.40;99.90;;;;;;5087682;27;20159;-42
2023/08/03 08:18:40;;;;;;;7.15;2.03;;;22.60;99.90;;;;;;5113850;27;20058;-47
2023/08/03 08:21:07;;;;;;;6.45;1.50;;;22.80;99.90;;;;;;5115588;27;20349;-44
2023/08/03 08:23:34;;;;;;;4.47;1.45;;;22.80;99.90;;;;;;5116280;27;20035;-42
2023/08/03 08:26:00;;;;;;;2.92;1.33;;;22.90;99.90;;;;;;5097848;28;20055;-43
2023/08/03 08:28:27;;;;;;;6.03;1.80;;;23.10;99.90;;;;;;5116584;27;20069;-42
2023/08/03 08:30:53;;;;;;;7.18;2.35;;;23.20;99.90;;;;;;5115001;27;20381;-41
2023/08/03 08:33:19;;;;;;;6.70;2.55;;;23.00;99.90;;;;;;5116096;27;20497;-42
2023/08/03 08:35:46;;;;;;;7.45;1.83;;;23.20;99.90;;;;;;5115210;27;20537;-45
2023/08/03 08:38:15;;;;;;;6.32;2.20;;;23.30;99.90;;;;;;5115607;28;20118;-43
2023/08/03 08:40:42;;;;;;;7.30;1.80;;;23.60;99.90;;;;;;5115679;27;20595;-41
2023/08/03 08:43:09;;;;;;;9.15;2.28;;;23.70;99.90;;;;;;5119621;27;20047;-41
2023/08/03 08:45:36;;;;;;;7.10;2.40;;;23.90;99.90;;;;;;5118778;27;20080;-44
2023/08/03 08:48:03;;;;;;;6.32;2.50;;;23.90;99.90;;;;;;5119658;27;20583;-42
2023/08/03 08:50:29;;;;;;;5.57;1.88;;;24.00;99.90;;;;;;5118599;27;20047;-42
2023/08/03 08:52:55;;;;;;;6.47;1.98;;;24.10;99.90;;;;;;5119791;27;20039;-42
2023/08/03 08:55:24;;;;;;;6.32;2.47;;;24.10;99.90;;;;;;5118837;27;20560;-42
2023/08/03 08:57:50;;;;;;;6.70;2.08;;;24.00;99.90;;;;;;5118957;27;20043;-42
2023/08/03 09:00:16;;;;;;;7.60;2.40;;;23.90;99.90;;;;;;5117657;27;20053;-42
2023/08/03 09:02:42;;;;;;;6.55;2.15;;;23.70;99.90;;;;;;5119021;27;20043;-42
2023/08/03 09:05:19;;;;;;;6.10;1.85;;;23.60;99.90;;;;;;5118468;27;20066;-41
2023/08/03 09:07:45;;;;;;;8.18;2.67;;;23.40;99.90;;;;;;5118371;27;20549;-42
2023/08/03 09:10:11;;;;;;;6.03;2.17;;;23.60;99.90;;;;;;5104845;27;20099;-43
2023/08/03 09:12:38;;;;;;;4.57;1.80;;;23.90;99.90;;;;;;5118834;27;20050;-41
2023/08/03 09:15:05;;;;;;;6.07;1.60;;;24.10;99.90;;;;;;5122166;27;20125;-42
2023/08/03 09:17:31;;;;;;;8.48;2.67;;;24.40;99.90;;;;;;5126344;27;20043;-42
2023/08/03 09:19:57;;;;;;;6.70;2.05;;;24.50;99.90;;;;;;5118328;27;20484;-41
2023/08/03 09:22:25;;;;;;;5.45;1.80;;;24.60;99.90;;;;;;5119233;27;20039;-42
2023/08/03 09:25:09;;;;;;;9.27;2.03;;;24.40;99.90;;;;;;5119211;27;20098;-42
2023/08/03 09:27:46;;;;;;;7.22;2.22;;;24.20;99.90;;;;;;5118784;27;20411;-42
2023/08/03 09:30:12;;;;;;;4.03;1.88;;;24.20;99.90;;;;;;5118128;27;20148;-42
2023/08/03 09:32:38;;;;;;;10.15;3.05;;;24.10;99.90;;;;;;5100808;27;20043;-42
2023/08/03 09:35:19;;;;;;;8.90;2.00;;;23.90;99.90;;;;;;5119315;27;20084;-42
2023/08/03 09:37:46;;;;;;;7.97;2.10;;;23.90;99.90;;;;;;5118053;27;20044;-42
2023/08/03 09:40:12;;;;;;;7.70;1.92;;;24.00;99.90;;;;;;5117039;27;20501;-44
2023/08/03 09:42:40;;;;;;;6.53;1.85;;;23.90;99.90;;;;;;5118316;27;20039;-45
2023/08/03 09:45:08;;;;;;;8.95;2.60;;;23.80;99.90;;;;;;5099779;27;20047;-44
2023/08/03 09:47:38;;;;;;;6.13;2.13;;;23.80;99.90;;;;;;5117694;27;20035;-42
2023/08/03 09:50:04;;;;;;;7.38;2.50;;;23.50;99.90;;;;;;5117036;27;20047;-41
2023/08/03 09:52:31;;;;;;;4.70;1.70;;;23.30;99.90;;;;;;5117766;27;20083;-41
2023/08/03 09:55:13;;;;;;;10.52;2.28;;;23.50;99.90;;;;;;5117683;27;20065;-42
2023/08/03 09:58:04;;;;;;;4.95;1.70;;;23.80;99.90;;;;;;5117757;27;20597;-42
2023/08/03 10:00:31;;;;;;;6.55;2.10;;;23.60;99.90;;;;;;5111395;27;20054;-45
2023/08/03 10:03:04;;;;;;;4.03;1.80;;;23.50;99.90;;;;;;5118075;27;20086;-41
2023/08/03 10:05:38;;;;;;;4.07;1.42;;;23.60;99.90;;;;;;5117742;27;20047;-42
2023/08/03 10:08:17;;;;;;;6.82;1.80;;;23.80;99.90;;;;;;5098730;27;20492;-43
2023/08/03 10:10:47;;;;;;;4.50;1.30;;;24.00;99.90;;;;;;5110586;27;20050;-41
2023/08/03 10:13:14;;;;;;;5.10;2.10;;;24.30;99.90;;;;;;5138335;27;20122;-44
2023/08/03 10:15:41;;;;;;;4.55;1.30;;;24.30;99.90;;;;;;5139510;27;20108;-43
2023/08/03 10:18:06;;;;;;;5.50;1.85;;;24.00;99.90;;;;;;5133403;27;20074;-42
2023/08/03 10:20:36;;;;;;;7.20;2.15;;;23.80;99.90;;;;;;5116839;27;20166;-41
2023/08/03 10:23:18;;;;;;;7.57;1.77;;;23.70;99.90;;;;;;5099412;27;20120;-42
2023/08/03 10:26:00;;;;;;;6.47;2.00;;;23.50;99.90;;;;;;5118273;27;20043;-43
2023/08/03 10:28:41;;;;;;;5.60;1.60;;;23.40;99.90;;;;;;5117648;27;20096;-44
2023/08/03 10:31:11;;;;;;;5.30;1.48;;;23.40;99.90;;;;;;5117277;27;20127;-41
2023/08/03 10:33:46;;;;;;;2.97;1.38;;;23.50;99.90;;;;;;5118183;27;20459;-44
2023/08/03 10:36:35;;;;;;;6.43;1.77;;;23.70;99.90;;;;;;5117265;27;20039;-42
2023/08/03 10:39:07;;;;;;;5.10;1.67;;;23.90;99.90;;;;;;5116136;27;20039;-43
2023/08/03 10:41:41;;;;;;;9.70;2.22;;;23.90;99.90;;;;;;5117528;27;20081;-42
2023/08/03 10:44:09;;;;;;;7.60;1.60;;;23.90;99.90;;;;;;5117809;27;20039;-42
2023/08/03 10:46:40;;;;;;;5.25;1.75;;;23.60;99.90;;;;;;5116058;27;20454;-45
2023/08/03 10:49:22;;;;;;;5.22;2.03;;;23.70;99.90;;;;;;5097632;27;20058;-42
2023/08/03 10:51:52;;;;;;;7.33;2.20;;;23.80;99.90;;;;;;5115552;27;20054;-42
2023/08/03 10:54:28;;;;;;;10.05;2.55;;;23.70;99.90;;;;;;5115552;27;20093;-42
2023/08/03 10:57:06;;;;;;;10.68;2.88;;;23.50;99.90;;;;;;5115478;27;20552;-42
2023/08/03 10:59:39;;;;;;;9.13;2.38;;;23.40;99.90;;;;;;5114987;27;20054;-43
2023/08/03 11:02:22;;;;;;;7.78;2.60;;;23.40;99.90;;;;;;5097219;27;20039;-43
2023/08/03 11:04:52;;;;;;;8.02;2.67;;;23.70;99.90;;;;;;5115130;27;20039;-42
2023/08/03 11:07:23;;;;;;;9.07;2.50;;;23.90;99.90;;;;;;5116003;27;20590;-42
2023/08/03 11:09:53;;;;;;;7.97;2.78;;;24.00;99.90;;;;;;5102199;27;20050;-42
2023/08/03 11:12:22;;;;;;;7.82;3.05;;;24.30;99.90;;;;;;5091957;27;20039;-45
2023/08/03 11:14:50;;;;;;;8.50;2.40;;;24.30;99.90;;;;;;5118517;27;20142;-42
2023/08/03 11:17:16;;;;;;;7.47;2.50;;;24.20;99.90;;;;;;5134257;27;20125;-42
2023/08/03 11:19:43;;;;;;;8.02;2.67;;;24.10;99.90;;;;;;5135779;27;20085;-47
2023/08/03 11:22:11;;;;;;;7.47;2.30;;;23.60;99.90;;;;;;5137381;27;20031;-42
2023/08/03 11:24:36;;;;;;;5.55;1.60;;;23.30;99.90;;;;;;5137208;27;20035;-42
2023/08/03 11:27:04;;;;;;;5.72;1.70;;;23.20;99.90;;;;;;5137047;27;20045;-42
2023/08/03 11:29:39;;;;;;;5.20;1.60;;;23.20;99.90;;;;;;5134547;27;20027;-43
2023/08/03 11:32:05;;;;;;;4.88;1.58;;;23.10;99.90;;;;;;5127924;27;20127;-43
2023/08/03 11:34:32;;;;;;;5.18;1.65;;;23.20;99.90;;;;;;5137411;27;20047;-43
2023/08/03 11:36:58;;;;;;;8.50;2.03;;;23.20;99.90;;;;;;5118682;27;20050;-44
2023/08/03 11:39:24;;;;;;;8.48;2.20;;;23.30;99.90;;;;;;5136711;27;20042;-43
2023/08/03 11:41:52;;;;;;;5.65;2.30;;;23.20;99.90;;;;;;5136067;27;20392;-42
2023/08/03 11:44:22;;;;;;;7.22;2.45;;;23.10;99.90;;;;;;5136609;27;20051;-43
2023/08/03 11:46:49;;;;;;;8.40;2.13;;;23.10;99.90;;;;;;5117218;27;20150;-42
2023/08/03 11:49:15;;;;;;;7.30;2.28;;;23.10;99.90;;;;;;5135829;27;20118;-42
2023/08/03 11:51:41;;;;;;;6.95;1.90;;;22.90;99.90;;;;;;5134982;27;20046;-42
2023/08/03 11:54:10;;;;;;;7.07;2.05;;;22.90;99.90;;;;;;5135288;27;20389;-43
2023/08/03 11:56:38;;;;;;;8.93;2.58;;;23.00;99.90;;;;;;5099791;27;20058;-43
2023/08/03 11:59:08;;;;;;;7.30;2.50;;;22.90;99.90;;;;;;5135349;27;20388;-43
2023/08/03 12:01:45;;;;;;;8.57;2.67;;;22.80;99.90;;;;;;5135845;27;20078;-42
2023/08/03 12:04:11;;;;;;;7.07;2.75;;;22.60;99.90;;;;;;5136286;27;20119;-44
2023/08/03 12:06:51;;;;;;;6.28;2.65;;;22.50;99.90;;;;;;5135561;27;20114;-44
2023/08/03 12:09:27;;;;;;;8.50;2.10;;;22.20;99.90;;;;;;5109118;27;20423;-44
2023/08/03 12:12:03;;;;;;;7.63;2.75;;;21.90;99.90;;;;;;5128639;27;20388;-42
2023/08/03 12:14:29;;;;;;;9.57;2.83;;;21.50;99.90;;;;;;5123380;27;20043;-44
2023/08/03 12:16:55;;;;;;;9.23;3.00;;;21.40;99.90;;;;;;5114712;27;20552;-42
2023/08/03 12:19:21;;;;;;;9.32;2.58;;;21.30;99.90;;;;;;5113526;27;20047;-43
2023/08/03 12:21:47;;;;;;;8.90;2.92;;;21.20;99.90;;;;;;5095323;27;20047;-44
2023/08/03 12:24:13;;;;;;;5.75;2.15;;;21.00;99.90;;;;;;5115069;27;20047;-43
2023/08/03 12:26:40;;;;;;;8.23;2.53;;;20.80;99.90;;;;;;5115011;27;20393;-42
2023/08/03 12:29:06;;;;;;;8.40;2.97;;;20.70;99.90;;;;;;5095405;27;20043;-42
2023/08/03 12:31:32;;;;;;;8.30;2.28;;;20.60;99.90;;;;;;5113588;27;20131;-43
2023/08/03 12:33:58;;;;;;;6.43;2.25;;;20.70;99.90;;;;;;5114851;27;20172;-43
2023/08/03 12:36:25;;;;;;;6.00;1.83;;;20.70;99.90;;;;;;5115029;27;20055;-42
2023/08/03 12:38:51;;;;;;;6.43;2.50;;;20.80;99.90;;;;;;5114217;28;20043;-41
2023/08/03 12:41:19;;;;;;;6.70;2.45;;;20.80;99.90;;;;;;5114052;27;20523;-42
2023/08/03 12:43:46;;;;;;;8.52;2.38;;;20.60;99.90;;;;;;5114452;27;20532;-42